sensor_id;sensor_type;location;lat;lon;timestamp;P1;durP1;ratioP1;P2;durP2;ratioP2
27612;SDS011;15036;48.094;-1.690;2022-09-12T00:01:39;5.22;;;1.35;;
27612;SDS011;15036;48.094;-1.690;2022-09-12T00:04:05;2.10;;;0.93;;
27612;SDS011;15036;48.094;-1.690;2022-09-12T00:06:34;2.80;;;1.15;;
27612;SDS011;15036;48.094;-1.690;2022-09-12T00:09:02;3.55;;;1.20;;
27612;SDS011;15036;48.094;-1.690;2022-09-12T00:11:30;2.92;;;1.00;;
27612;SDS011;15036;48.094;-1.690;2022-09-12T00:13:56;2.05;;;1.02;;
27612;SDS011;15036;48.094;-1.690;2022-09-12T00:16:24;2.03;;;1.10;;
27612;SDS011;15036;48.094;-1.690;2022-09-12T00:18:51;1.90;;;0.90;;
27612;SDS011;15036;48.094;-1.690;2022-09-12T00:21:17;3.97;;;1.20;;
27612;SDS011;15036;48.094;-1.690;2022-09-12T00:23:44;1.98;;;1.20;;
27612;SDS011;15036;48.094;-1.690;2022-09-12T00:26:10;1.90;;;1.10;;
27612;SDS011;15036;48.094;-1.690;2022-09-12T00:28:36;4.10;;;1.20;;
27612;SDS011;15036;48.094;-1.690;2022-09-12T00:31:05;3.90;;;1.00;;
27612;SDS011;15036;48.094;-1.690;2022-09-12T00:33:31;4.63;;;0.90;;
27612;SDS011;15036;48.094;-1.690;2022-09-12T00:35:57;1.30;;;0.90;;
27612;SDS011;15036;48.094;-1.690;2022-09-12T00:38:22;2.33;;;1.10;;
27612;SDS011;15036;48.094;-1.690;2022-09-12T00:40:48;3.10;;;1.02;;
27612;SDS011;15036;48.094;-1.690;2022-09-12T00:43:14;2.38;;;1.00;;
27612;SDS011;15036;48.094;-1.690;2022-09-12T00:45:57;3.65;;;1.00;;
27612;SDS011;15036;48.094;-1.690;2022-09-12T00:48:37;3.58;;;1.00;;
27612;SDS011;15036;48.094;-1.690;2022-09-12T00:51:07;3.15;;;1.02;;
27612;SDS011;15036;48.094;-1.690;2022-09-12T00:53:32;3.45;;;1.05;;
27612;SDS011;15036;48.094;-1.690;2022-09-12T00:55:58;2.97;;;0.77;;
27612;SDS011;15036;48.094;-1.690;2022-09-12T00:58:28;2.78;;;0.90;;
27612;SDS011;15036;48.094;-1.690;2022-09-12T01:00:58;2.28;;;1.00;;
27612;SDS011;15036;48.094;-1.690;2022-09-12T01:03:23;7.47;;;1.30;;
27612;SDS011;15036;48.094;-1.690;2022-09-12T01:06:01;2.50;;;0.95;;
27612;SDS011;15036;48.094;-1.690;2022-09-12T01:08:33;2.30;;;0.95;;
27612;SDS011;15036;48.094;-1.690;2022-09-12T01:11:01;1.50;;;0.90;;
27612;SDS011;15036;48.094;-1.690;2022-09-12T01:13:28;1.33;;;0.80;;
27612;SDS011;15036;48.094;-1.690;2022-09-12T01:15:54;1.67;;;0.73;;
27612;SDS011;15036;48.094;-1.690;2022-09-12T01:18:27;2.00;;;0.82;;
27612;SDS011;15036;48.094;-1.690;2022-09-12T01:43:33;2.42;;;0.80;;
27612;SDS011;15036;48.094;-1.690;2022-09-12T01:46:11;2.83;;;1.00;;
27612;SDS011;15036;48.094;-1.690;2022-09-12T01:48:53;4.53;;;1.00;;
27612;SDS011;15036;48.094;-1.690;2022-09-12T01:54:03;2.33;;;1.00;;
27612;SDS011;15036;48.094;-1.690;2022-09-12T01:56:34;2.38;;;1.10;;
27612;SDS011;15036;48.094;-1.690;2022-09-12T02:01:45;3.55;;;1.10;;
27612;SDS011;15036;48.094;-1.690;2022-09-12T02:04:19;3.35;;;1.10;;
27612;SDS011;15036;48.094;-1.690;2022-09-12T02:06:51;3.97;;;1.20;;
27612;SDS011;15036;48.094;-1.690;2022-09-12T02:09:40;2.60;;;1.00;;
27612;SDS011;15036;48.094;-1.690;2022-09-12T02:12:07;3.08;;;0.90;;
27612;SDS011;15036;48.094;-1.690;2022-09-12T02:14:37;2.42;;;1.10;;
27612;SDS011;15036;48.094;-1.690;2022-09-12T02:17:10;2.25;;;1.10;;
27612;SDS011;15036;48.094;-1.690;2022-09-12T02:20:00;3.80;;;1.10;;
27612;SDS011;15036;48.094;-1.690;2022-09-12T02:22:32;2.85;;;1.10;;
27612;SDS011;15036;48.094;-1.690;2022-09-12T02:25:01;2.60;;;1.08;;
27612;SDS011;15036;48.094;-1.690;2022-09-12T02:27:35;2.35;;;1.20;;
27612;SDS011;15036;48.094;-1.690;2022-09-12T02:30:07;2.55;;;1.08;;
27612;SDS011;15036;48.094;-1.690;2022-09-12T02:32:35;3.85;;;1.10;;
27612;SDS011;15036;48.094;-1.690;2022-09-12T02:35:18;4.47;;;1.30;;
27612;SDS011;15036;48.094;-1.690;2022-09-12T02:40:20;2.42;;;1.35;;
27612;SDS011;15036;48.094;-1.690;2022-09-12T02:42:47;3.78;;;1.35;;
27612;SDS011;15036;48.094;-1.690;2022-09-12T02:45:12;2.72;;;1.27;;
27612;SDS011;15036;48.094;-1.690;2022-09-12T02:47:40;4.57;;;1.33;;
27612;SDS011;15036;48.094;-1.690;2022-09-12T02:50:26;2.75;;;1.27;;
27612;SDS011;15036;48.094;-1.690;2022-09-12T02:52:52;4.18;;;1.50;;
27612;SDS011;15036;48.094;-1.690;2022-09-12T02:55:19;2.05;;;1.17;;
27612;SDS011;15036;48.094;-1.690;2022-09-12T02:57:45;2.50;;;1.30;;
27612;SDS011;15036;48.094;-1.690;2022-09-12T03:00:11;3.40;;;1.27;;
27612;SDS011;15036;48.094;-1.690;2022-09-12T03:05:51;3.13;;;1.17;;
27612;SDS011;15036;48.094;-1.690;2022-09-12T03:08:37;3.15;;;1.20;;
27612;SDS011;15036;48.094;-1.690;2022-09-12T03:11:25;3.10;;;1.10;;
27612;SDS011;15036;48.094;-1.690;2022-09-12T03:22:30;2.20;;;1.20;;
27612;SDS011;15036;48.094;-1.690;2022-09-12T03:27:35;3.78;;;1.17;;
27612;SDS011;15036;48.094;-1.690;2022-09-12T03:30:05;2.03;;;1.20;;
27612;SDS011;15036;48.094;-1.690;2022-09-12T03:32:45;1.63;;;1.10;;
27612;SDS011;15036;48.094;-1.690;2022-09-12T03:35:14;3.50;;;1.30;;
27612;SDS011;15036;48.094;-1.690;2022-09-12T03:37:41;5.45;;;1.40;;
27612;SDS011;15036;48.094;-1.690;2022-09-12T03:40:07;2.00;;;1.08;;
27612;SDS011;15036;48.094;-1.690;2022-09-12T03:42:34;2.60;;;1.15;;
27612;SDS011;15036;48.094;-1.690;2022-09-12T03:44:59;3.85;;;1.35;;
27612;SDS011;15036;48.094;-1.690;2022-09-12T03:47:25;2.13;;;1.17;;
27612;SDS011;15036;48.094;-1.690;2022-09-12T03:49:50;2.15;;;1.27;;
27612;SDS011;15036;48.094;-1.690;2022-09-12T03:52:19;3.28;;;1.10;;
27612;SDS011;15036;48.094;-1.690;2022-09-12T03:54:44;2.35;;;1.00;;
27612;SDS011;15036;48.094;-1.690;2022-09-12T03:57:10;3.80;;;1.33;;
27612;SDS011;15036;48.094;-1.690;2022-09-12T03:59:35;2.75;;;1.25;;
27612;SDS011;15036;48.094;-1.690;2022-09-12T04:02:01;3.75;;;1.08;;
27612;SDS011;15036;48.094;-1.690;2022-09-12T04:04:27;2.92;;;1.00;;
27612;SDS011;15036;48.094;-1.690;2022-09-12T04:06:52;2.72;;;1.20;;
27612;SDS011;15036;48.094;-1.690;2022-09-12T04:09:18;2.78;;;1.27;;
27612;SDS011;15036;48.094;-1.690;2022-09-12T04:11:43;2.33;;;1.20;;
27612;SDS011;15036;48.094;-1.690;2022-09-12T04:14:08;2.83;;;1.27;;
27612;SDS011;15036;48.094;-1.690;2022-09-12T04:16:34;1.52;;;1.10;;
27612;SDS011;15036;48.094;-1.690;2022-09-12T04:19:00;4.28;;;1.40;;
27612;SDS011;15036;48.094;-1.690;2022-09-12T04:21:25;3.85;;;1.30;;
27612;SDS011;15036;48.094;-1.690;2022-09-12T04:23:50;4.32;;;1.35;;
27612;SDS011;15036;48.094;-1.690;2022-09-12T04:26:16;4.13;;;1.30;;
27612;SDS011;15036;48.094;-1.690;2022-09-12T04:28:43;2.03;;;1.20;;
27612;SDS011;15036;48.094;-1.690;2022-09-12T04:31:11;3.88;;;1.30;;
27612;SDS011;15036;48.094;-1.690;2022-09-12T04:33:39;2.42;;;1.40;;
27612;SDS011;15036;48.094;-1.690;2022-09-12T04:36:06;3.55;;;1.20;;
27612;SDS011;15036;48.094;-1.690;2022-09-12T04:38:34;2.75;;;1.23;;
27612;SDS011;15036;48.094;-1.690;2022-09-12T04:41:00;2.75;;;1.30;;
27612;SDS011;15036;48.094;-1.690;2022-09-12T04:43:33;2.60;;;1.30;;
27612;SDS011;15036;48.094;-1.690;2022-09-12T04:46:03;2.95;;;1.30;;
27612;SDS011;15036;48.094;-1.690;2022-09-12T04:48:32;2.53;;;1.30;;
27612;SDS011;15036;48.094;-1.690;2022-09-12T04:53:32;2.05;;;1.23;;
27612;SDS011;15036;48.094;-1.690;2022-09-12T04:56:00;2.88;;;1.50;;
27612;SDS011;15036;48.094;-1.690;2022-09-12T04:58:31;3.47;;;1.20;;
27612;SDS011;15036;48.094;-1.690;2022-09-12T05:03:53;2.22;;;1.20;;
27612;SDS011;15036;48.094;-1.690;2022-09-12T05:06:21;2.80;;;1.42;;
27612;SDS011;15036;48.094;-1.690;2022-09-12T05:08:58;3.00;;;1.20;;
27612;SDS011;15036;48.094;-1.690;2022-09-12T05:11:27;2.85;;;1.50;;
27612;SDS011;15036;48.094;-1.690;2022-09-12T05:13:54;2.50;;;1.48;;
27612;SDS011;15036;48.094;-1.690;2022-09-12T05:16:20;4.93;;;1.27;;
27612;SDS011;15036;48.094;-1.690;2022-09-12T05:18:47;4.13;;;1.35;;
27612;SDS011;15036;48.094;-1.690;2022-09-12T05:21:14;4.65;;;1.50;;
27612;SDS011;15036;48.094;-1.690;2022-09-12T05:23:41;2.38;;;1.20;;
27612;SDS011;15036;48.094;-1.690;2022-09-12T05:26:07;2.95;;;1.38;;
27612;SDS011;15036;48.094;-1.690;2022-09-12T05:28:36;3.88;;;1.55;;
27612;SDS011;15036;48.094;-1.690;2022-09-12T05:31:06;4.50;;;1.58;;
27612;SDS011;15036;48.094;-1.690;2022-09-12T05:33:35;2.75;;;1.42;;
27612;SDS011;15036;48.094;-1.690;2022-09-12T05:36:03;5.63;;;1.63;;
27612;SDS011;15036;48.094;-1.690;2022-09-12T05:38:30;4.13;;;1.52;;
27612;SDS011;15036;48.094;-1.690;2022-09-12T05:41:06;2.03;;;1.13;;
27612;SDS011;15036;48.094;-1.690;2022-09-12T05:43:39;4.25;;;1.27;;
27612;SDS011;15036;48.094;-1.690;2022-09-12T05:46:16;3.25;;;1.40;;
27612;SDS011;15036;48.094;-1.690;2022-09-12T05:48:43;2.35;;;1.35;;
27612;SDS011;15036;48.094;-1.690;2022-09-12T05:51:11;4.28;;;1.50;;
27612;SDS011;15036;48.094;-1.690;2022-09-12T05:53:41;2.40;;;1.30;;
27612;SDS011;15036;48.094;-1.690;2022-09-12T05:56:08;4.78;;;1.63;;
27612;SDS011;15036;48.094;-1.690;2022-09-12T05:58:37;4.00;;;1.70;;
27612;SDS011;15036;48.094;-1.690;2022-09-12T06:03:33;3.10;;;1.40;;
27612;SDS011;15036;48.094;-1.690;2022-09-12T06:06:05;5.22;;;1.30;;
27612;SDS011;15036;48.094;-1.690;2022-09-12T06:08:32;3.15;;;1.58;;
27612;SDS011;15036;48.094;-1.690;2022-09-12T06:11:02;4.32;;;1.98;;
27612;SDS011;15036;48.094;-1.690;2022-09-12T06:13:30;3.90;;;1.52;;
27612;SDS011;15036;48.094;-1.690;2022-09-12T06:16:09;3.20;;;1.75;;
27612;SDS011;15036;48.094;-1.690;2022-09-12T06:18:39;3.72;;;1.58;;
27612;SDS011;15036;48.094;-1.690;2022-09-12T06:21:09;3.15;;;1.65;;
27612;SDS011;15036;48.094;-1.690;2022-09-12T06:23:36;2.83;;;1.60;;
27612;SDS011;15036;48.094;-1.690;2022-09-12T06:26:04;4.97;;;1.60;;
27612;SDS011;15036;48.094;-1.690;2022-09-12T06:28:31;3.45;;;1.40;;
27612;SDS011;15036;48.094;-1.690;2022-09-12T06:31:05;4.75;;;1.73;;
27612;SDS011;15036;48.094;-1.690;2022-09-12T06:33:33;4.82;;;1.90;;
27612;SDS011;15036;48.094;-1.690;2022-09-12T06:38:36;4.28;;;1.60;;
27612;SDS011;15036;48.094;-1.690;2022-09-12T06:41:03;4.57;;;1.52;;
27612;SDS011;15036;48.094;-1.690;2022-09-12T06:43:29;3.20;;;1.42;;
27612;SDS011;15036;48.094;-1.690;2022-09-12T06:45:55;3.65;;;1.58;;
27612;SDS011;15036;48.094;-1.690;2022-09-12T06:48:21;3.90;;;1.60;;
27612;SDS011;15036;48.094;-1.690;2022-09-12T06:50:56;3.95;;;1.63;;
27612;SDS011;15036;48.094;-1.690;2022-09-12T06:53:23;4.18;;;1.67;;
27612;SDS011;15036;48.094;-1.690;2022-09-12T06:55:59;4.35;;;1.42;;
27612;SDS011;15036;48.094;-1.690;2022-09-12T06:58:26;5.25;;;1.80;;
27612;SDS011;15036;48.094;-1.690;2022-09-12T07:00:59;4.45;;;1.65;;
27612;SDS011;15036;48.094;-1.690;2022-09-12T07:03:33;5.20;;;1.90;;
27612;SDS011;15036;48.094;-1.690;2022-09-12T07:06:06;4.68;;;2.03;;
27612;SDS011;15036;48.094;-1.690;2022-09-12T07:08:33;3.30;;;1.45;;
27612;SDS011;15036;48.094;-1.690;2022-09-12T07:11:23;5.28;;;1.63;;
27612;SDS011;15036;48.094;-1.690;2022-09-12T07:13:52;3.13;;;1.60;;
27612;SDS011;15036;48.094;-1.690;2022-09-12T07:16:20;4.97;;;1.45;;
27612;SDS011;15036;48.094;-1.690;2022-09-12T07:18:52;3.92;;;1.50;;
27612;SDS011;15036;48.094;-1.690;2022-09-12T07:21:21;3.38;;;1.63;;
27612;SDS011;15036;48.094;-1.690;2022-09-12T07:23:47;2.88;;;1.45;;
27612;SDS011;15036;48.094;-1.690;2022-09-12T07:26:15;4.00;;;1.80;;
27612;SDS011;15036;48.094;-1.690;2022-09-12T07:28:41;3.25;;;1.60;;
27612;SDS011;15036;48.094;-1.690;2022-09-12T07:31:09;5.18;;;1.50;;
27612;SDS011;15036;48.094;-1.690;2022-09-12T07:33:34;1.95;;;1.20;;
27612;SDS011;15036;48.094;-1.690;2022-09-12T07:36:01;2.90;;;1.70;;
27612;SDS011;15036;48.094;-1.690;2022-09-12T07:38:28;5.88;;;1.60;;
27612;SDS011;15036;48.094;-1.690;2022-09-12T07:40:54;3.92;;;1.63;;
27612;SDS011;15036;48.094;-1.690;2022-09-12T07:43:19;3.42;;;1.38;;
27612;SDS011;15036;48.094;-1.690;2022-09-12T07:45:45;1.80;;;1.25;;
27612;SDS011;15036;48.094;-1.690;2022-09-12T07:48:10;3.08;;;1.20;;
27612;SDS011;15036;48.094;-1.690;2022-09-12T07:50:35;2.78;;;1.42;;
27612;SDS011;15036;48.094;-1.690;2022-09-12T07:53:04;4.00;;;1.30;;
27612;SDS011;15036;48.094;-1.690;2022-09-12T07:55:30;3.85;;;1.30;;
27612;SDS011;15036;48.094;-1.690;2022-09-12T07:57:56;1.90;;;1.10;;
27612;SDS011;15036;48.094;-1.690;2022-09-12T08:00:22;3.92;;;1.42;;
27612;SDS011;15036;48.094;-1.690;2022-09-12T08:02:50;1.85;;;1.33;;
27612;SDS011;15036;48.094;-1.690;2022-09-12T08:05:17;3.08;;;1.30;;
27612;SDS011;15036;48.094;-1.690;2022-09-12T08:07:43;5.13;;;1.30;;
27612;SDS011;15036;48.094;-1.690;2022-09-12T08:10:08;3.35;;;1.30;;
27612;SDS011;15036;48.094;-1.690;2022-09-12T08:12:34;3.30;;;1.52;;
27612;SDS011;15036;48.094;-1.690;2022-09-12T08:14:59;2.38;;;1.13;;
27612;SDS011;15036;48.094;-1.690;2022-09-12T08:17:25;4.22;;;1.67;;
27612;SDS011;15036;48.094;-1.690;2022-09-12T08:19:50;3.53;;;1.67;;
27612;SDS011;15036;48.094;-1.690;2022-09-12T08:22:16;3.20;;;1.40;;
27612;SDS011;15036;48.094;-1.690;2022-09-12T08:24:46;3.50;;;1.75;;
27612;SDS011;15036;48.094;-1.690;2022-09-12T08:27:12;6.63;;;1.60;;
27612;SDS011;15036;48.094;-1.690;2022-09-12T08:29:38;3.67;;;1.40;;
27612;SDS011;15036;48.094;-1.690;2022-09-12T08:32:04;2.83;;;1.30;;
27612;SDS011;15036;48.094;-1.690;2022-09-12T08:34:30;2.42;;;1.48;;
27612;SDS011;15036;48.094;-1.690;2022-09-12T08:36:55;3.95;;;1.40;;
27612;SDS011;15036;48.094;-1.690;2022-09-12T08:39:21;3.72;;;1.35;;
27612;SDS011;15036;48.094;-1.690;2022-09-12T08:41:53;3.95;;;1.40;;
27612;SDS011;15036;48.094;-1.690;2022-09-12T08:44:45;2.85;;;1.23;;
27612;SDS011;15036;48.094;-1.690;2022-09-12T08:47:31;3.00;;;1.40;;
27612;SDS011;15036;48.094;-1.690;2022-09-12T08:55:22;5.63;;;1.73;;
27612;SDS011;15036;48.094;-1.690;2022-09-12T08:57:55;5.45;;;2.20;;
27612;SDS011;15036;48.094;-1.690;2022-09-12T09:00:21;4.55;;;2.20;;
27612;SDS011;15036;48.094;-1.690;2022-09-12T09:10:52;6.18;;;3.08;;
27612;SDS011;15036;48.094;-1.690;2022-09-12T09:13:57;5.57;;;2.88;;
27612;SDS011;15036;48.094;-1.690;2022-09-12T09:17:08;4.18;;;2.13;;
27612;SDS011;15036;48.094;-1.690;2022-09-12T09:19:43;4.43;;;2.10;;
27612;SDS011;15036;48.094;-1.690;2022-09-12T09:22:15;5.63;;;2.10;;
27612;SDS011;15036;48.094;-1.690;2022-09-12T09:24:50;8.25;;;2.03;;
27612;SDS011;15036;48.094;-1.690;2022-09-12T09:27:27;3.33;;;1.58;;
27612;SDS011;15036;48.094;-1.690;2022-09-12T09:29:57;4.68;;;1.40;;
27612;SDS011;15036;48.094;-1.690;2022-09-12T09:34:49;3.63;;;1.58;;
27612;SDS011;15036;48.094;-1.690;2022-09-12T09:37:20;4.05;;;1.30;;
27612;SDS011;15036;48.094;-1.690;2022-09-12T09:45:12;2.45;;;1.02;;
27612;SDS011;15036;48.094;-1.690;2022-09-12T09:47:41;3.03;;;1.08;;
27612;SDS011;15036;48.094;-1.690;2022-09-12T09:50:20;3.97;;;1.27;;
27612;SDS011;15036;48.094;-1.690;2022-09-12T09:52:46;4.53;;;1.20;;
27612;SDS011;15036;48.094;-1.690;2022-09-12T09:55:15;3.90;;;1.48;;
27612;SDS011;15036;48.094;-1.690;2022-09-12T09:57:45;2.65;;;1.10;;
27612;SDS011;15036;48.094;-1.690;2022-09-12T10:05:32;2.78;;;1.10;;
27612;SDS011;15036;48.094;-1.690;2022-09-12T10:08:18;4.30;;;1.30;;
27612;SDS011;15036;48.094;-1.690;2022-09-12T10:11:00;6.32;;;1.67;;
27612;SDS011;15036;48.094;-1.690;2022-09-12T10:18:43;3.53;;;1.48;;
27612;SDS011;15036;48.094;-1.690;2022-09-12T10:21:29;4.50;;;1.40;;
27612;SDS011;15036;48.094;-1.690;2022-09-12T10:26:45;3.10;;;1.50;;
27612;SDS011;15036;48.094;-1.690;2022-09-12T10:29:21;3.45;;;1.38;;
27612;SDS011;15036;48.094;-1.690;2022-09-12T10:31:49;3.25;;;1.20;;
27612;SDS011;15036;48.094;-1.690;2022-09-12T10:34:20;3.10;;;1.42;;
27612;SDS011;15036;48.094;-1.690;2022-09-12T10:36:50;3.63;;;1.50;;
27612;SDS011;15036;48.094;-1.690;2022-09-12T10:39:23;4.57;;;1.13;;
27612;SDS011;15036;48.094;-1.690;2022-09-12T10:41:48;3.20;;;1.20;;
27612;SDS011;15036;48.094;-1.690;2022-09-12T10:44:15;4.75;;;1.05;;
27612;SDS011;15036;48.094;-1.690;2022-09-12T10:46:42;2.83;;;1.20;;
27612;SDS011;15036;48.094;-1.690;2022-09-12T10:49:12;4.13;;;1.50;;
27612;SDS011;15036;48.094;-1.690;2022-09-12T10:51:45;2.50;;;1.30;;
27612;SDS011;15036;48.094;-1.690;2022-09-12T10:54:11;4.13;;;1.35;;
27612;SDS011;15036;48.094;-1.690;2022-09-12T10:56:54;2.15;;;1.25;;
27612;SDS011;15036;48.094;-1.690;2022-09-12T11:02:51;2.53;;;1.42;;
27612;SDS011;15036;48.094;-1.690;2022-09-12T11:05:36;3.80;;;1.40;;
27612;SDS011;15036;48.094;-1.690;2022-09-12T11:30:13;1.80;;;0.82;;
27612;SDS011;15036;48.094;-1.690;2022-09-12T11:35:29;3.90;;;0.90;;
27612;SDS011;15036;48.094;-1.690;2022-09-12T11:40:46;2.85;;;1.10;;
27612;SDS011;15036;48.094;-1.690;2022-09-12T11:43:23;3.78;;;1.05;;
27612;SDS011;15036;48.094;-1.690;2022-09-12T11:45:58;2.08;;;0.90;;
27612;SDS011;15036;48.094;-1.690;2022-09-12T11:48:39;3.80;;;1.10;;
27612;SDS011;15036;48.094;-1.690;2022-09-12T11:51:21;3.22;;;1.30;;
27612;SDS011;15036;48.094;-1.690;2022-09-12T11:54:05;2.97;;;1.00;;
27612;SDS011;15036;48.094;-1.690;2022-09-12T11:56:58;1.90;;;0.90;;
27612;SDS011;15036;48.094;-1.690;2022-09-12T12:02:30;1.90;;;0.80;;
27612;SDS011;15036;48.094;-1.690;2022-09-12T12:07:55;2.67;;;1.02;;
27612;SDS011;15036;48.094;-1.690;2022-09-12T12:12:50;2.05;;;0.80;;
27612;SDS011;15036;48.094;-1.690;2022-09-12T12:15:18;2.55;;;0.77;;
27612;SDS011;15036;48.094;-1.690;2022-09-12T12:17:45;2.95;;;0.82;;
27612;SDS011;15036;48.094;-1.690;2022-09-12T12:20:41;1.52;;;0.70;;
27612;SDS011;15036;48.094;-1.690;2022-09-12T12:23:21;5.18;;;0.77;;
27612;SDS011;15036;48.094;-1.690;2022-09-12T12:25:50;2.70;;;0.80;;
27612;SDS011;15036;48.094;-1.690;2022-09-12T12:31:06;1.80;;;0.90;;
27612;SDS011;15036;48.094;-1.690;2022-09-12T12:36:03;1.88;;;1.00;;
27612;SDS011;15036;48.094;-1.690;2022-09-12T12:43:43;2.63;;;0.65;;
27612;SDS011;15036;48.094;-1.690;2022-09-12T12:46:31;3.78;;;0.95;;
27612;SDS011;15036;48.094;-1.690;2022-09-12T12:49:24;2.95;;;0.90;;
27612;SDS011;15036;48.094;-1.690;2022-09-12T12:51:57;4.78;;;0.80;;
27612;SDS011;15036;48.094;-1.690;2022-09-12T12:57:46;2.88;;;0.80;;
27612;SDS011;15036;48.094;-1.690;2022-09-12T12:59:51;2.13;;;0.77;;
27612;SDS011;15036;48.094;-1.690;2022-09-12T13:02:21;1.83;;;0.63;;
27612;SDS011;15036;48.094;-1.690;2022-09-12T13:04:51;1.20;;;0.70;;
27612;SDS011;15036;48.094;-1.690;2022-09-12T13:07:23;1.65;;;0.70;;
27612;SDS011;15036;48.094;-1.690;2022-09-12T13:09:55;2.10;;;1.00;;
27612;SDS011;15036;48.094;-1.690;2022-09-12T13:12:32;3.33;;;1.10;;
27612;SDS011;15036;48.094;-1.690;2022-09-12T13:17:56;1.60;;;0.70;;
27612;SDS011;15036;48.094;-1.690;2022-09-12T13:20:25;4.53;;;1.02;;
27612;SDS011;15036;48.094;-1.690;2022-09-12T13:22:54;3.67;;;0.82;;
27612;SDS011;15036;48.094;-1.690;2022-09-12T13:25:38;2.28;;;0.85;;
27612;SDS011;15036;48.094;-1.690;2022-09-12T13:30:36;2.08;;;0.80;;
27612;SDS011;15036;48.094;-1.690;2022-09-12T13:33:18;2.78;;;0.90;;
27612;SDS011;15036;48.094;-1.690;2022-09-12T13:43:48;2.30;;;0.80;;
27612;SDS011;15036;48.094;-1.690;2022-09-12T13:46:16;4.07;;;1.08;;
27612;SDS011;15036;48.094;-1.690;2022-09-12T13:48:48;3.33;;;1.00;;
27612;SDS011;15036;48.094;-1.690;2022-09-12T13:51:20;2.85;;;0.90;;
27612;SDS011;15036;48.094;-1.690;2022-09-12T13:53:51;1.60;;;0.70;;
27612;SDS011;15036;48.094;-1.690;2022-09-12T13:56:20;3.83;;;0.80;;
27612;SDS011;15036;48.094;-1.690;2022-09-12T13:58:56;2.08;;;0.80;;
27612;SDS011;15036;48.094;-1.690;2022-09-12T14:01:24;3.67;;;0.90;;
27612;SDS011;15036;48.094;-1.690;2022-09-12T14:04:20;3.70;;;1.00;;
27612;SDS011;15036;48.094;-1.690;2022-09-12T14:09:38;1.65;;;0.80;;
27612;SDS011;15036;48.094;-1.690;2022-09-12T14:14:49;2.90;;;0.90;;
27612;SDS011;15036;48.094;-1.690;2022-09-12T14:17:23;5.13;;;1.13;;
27612;SDS011;15036;48.094;-1.690;2022-09-12T14:22:23;4.13;;;1.10;;
27612;SDS011;15036;48.094;-1.690;2022-09-12T14:24:54;3.88;;;0.88;;
27612;SDS011;15036;48.094;-1.690;2022-09-12T14:27:41;2.22;;;0.85;;
27612;SDS011;15036;48.094;-1.690;2022-09-12T14:30:23;2.85;;;0.80;;
27612;SDS011;15036;48.094;-1.690;2022-09-12T14:33:01;2.75;;;0.90;;
27612;SDS011;15036;48.094;-1.690;2022-09-12T14:35:36;1.60;;;0.88;;
27612;SDS011;15036;48.094;-1.690;2022-09-12T14:38:12;5.93;;;1.25;;
27612;SDS011;15036;48.094;-1.690;2022-09-12T14:40:51;5.03;;;1.02;;
27612;SDS011;15036;48.094;-1.690;2022-09-12T14:43:25;5.22;;;1.00;;
27612;SDS011;15036;48.094;-1.690;2022-09-12T14:46:05;3.30;;;0.90;;
27612;SDS011;15036;48.094;-1.690;2022-09-12T14:48:42;2.95;;;1.00;;
27612;SDS011;15036;48.094;-1.690;2022-09-12T14:51:27;3.47;;;1.00;;
27612;SDS011;15036;48.094;-1.690;2022-09-12T14:53:58;2.35;;;0.73;;
27612;SDS011;15036;48.094;-1.690;2022-09-12T15:07:34;1.77;;;0.75;;
27612;SDS011;15036;48.094;-1.690;2022-09-12T15:10:00;5.75;;;1.00;;
27612;SDS011;15036;48.094;-1.690;2022-09-12T15:12:29;2.15;;;0.70;;
27612;SDS011;15036;48.094;-1.690;2022-09-12T15:14:58;1.42;;;0.73;;
27612;SDS011;15036;48.094;-1.690;2022-09-12T15:17:30;1.25;;;0.90;;
27612;SDS011;15036;48.094;-1.690;2022-09-12T15:19:56;2.58;;;0.80;;
27612;SDS011;15036;48.094;-1.690;2022-09-12T15:22:21;3.28;;;0.73;;
27612;SDS011;15036;48.094;-1.690;2022-09-12T15:24:48;2.38;;;0.90;;
27612;SDS011;15036;48.094;-1.690;2022-09-12T15:27:14;2.22;;;0.90;;
27612;SDS011;15036;48.094;-1.690;2022-09-12T15:29:39;2.10;;;0.80;;
27612;SDS011;15036;48.094;-1.690;2022-09-12T15:32:05;2.53;;;0.90;;
27612;SDS011;15036;48.094;-1.690;2022-09-12T15:34:31;2.45;;;0.90;;
27612;SDS011;15036;48.094;-1.690;2022-09-12T15:36:56;2.33;;;0.70;;
27612;SDS011;15036;48.094;-1.690;2022-09-12T15:39:22;2.28;;;0.80;;
27612;SDS011;15036;48.094;-1.690;2022-09-12T15:41:47;3.72;;;0.95;;
27612;SDS011;15036;48.094;-1.690;2022-09-12T15:44:13;2.08;;;0.80;;
27612;SDS011;15036;48.094;-1.690;2022-09-12T15:46:38;1.42;;;0.82;;
27612;SDS011;15036;48.094;-1.690;2022-09-12T15:49:04;4.18;;;1.00;;
27612;SDS011;15036;48.094;-1.690;2022-09-12T15:51:31;2.25;;;1.10;;
27612;SDS011;15036;48.094;-1.690;2022-09-12T15:54:03;2.75;;;0.80;;
27612;SDS011;15036;48.094;-1.690;2022-09-12T15:56:28;4.88;;;1.08;;
27612;SDS011;15036;48.094;-1.690;2022-09-12T15:58:54;2.60;;;0.80;;
27612;SDS011;15036;48.094;-1.690;2022-09-12T16:01:19;2.75;;;0.80;;
27612;SDS011;15036;48.094;-1.690;2022-09-12T16:03:46;2.38;;;0.90;;
27612;SDS011;15036;48.094;-1.690;2022-09-12T16:06:12;8.13;;;1.30;;
27612;SDS011;15036;48.094;-1.690;2022-09-12T16:08:39;3.47;;;1.00;;
27612;SDS011;15036;48.094;-1.690;2022-09-12T16:11:10;2.63;;;1.00;;
27612;SDS011;15036;48.094;-1.690;2022-09-12T16:13:43;4.85;;;1.10;;
27612;SDS011;15036;48.094;-1.690;2022-09-12T16:16:09;2.60;;;0.82;;
27612;SDS011;15036;48.094;-1.690;2022-09-12T16:18:35;2.38;;;1.00;;
27612;SDS011;15036;48.094;-1.690;2022-09-12T16:21:00;2.92;;;0.80;;
27612;SDS011;15036;48.094;-1.690;2022-09-12T16:23:25;3.35;;;1.02;;
27612;SDS011;15036;48.094;-1.690;2022-09-12T16:25:55;1.98;;;0.70;;
27612;SDS011;15036;48.094;-1.690;2022-09-12T16:28:22;3.47;;;1.30;;
27612;SDS011;15036;48.094;-1.690;2022-09-12T16:30:54;4.15;;;1.20;;
27612;SDS011;15036;48.094;-1.690;2022-09-12T16:33:23;2.63;;;0.98;;
27612;SDS011;15036;48.094;-1.690;2022-09-12T16:35:49;4.57;;;1.13;;
27612;SDS011;15036;48.094;-1.690;2022-09-12T16:38:18;4.13;;;1.40;;
27612;SDS011;15036;48.094;-1.690;2022-09-12T16:40:44;3.83;;;1.20;;
27612;SDS011;15036;48.094;-1.690;2022-09-12T16:43:09;3.05;;;1.33;;
27612;SDS011;15036;48.094;-1.690;2022-09-12T16:45:35;2.38;;;0.90;;
27612;SDS011;15036;48.094;-1.690;2022-09-12T16:48:00;3.15;;;1.40;;
27612;SDS011;15036;48.094;-1.690;2022-09-12T16:50:26;2.55;;;1.20;;
27612;SDS011;15036;48.094;-1.690;2022-09-12T16:52:53;2.58;;;1.20;;
27612;SDS011;15036;48.094;-1.690;2022-09-12T16:55:18;5.03;;;1.38;;
27612;SDS011;15036;48.094;-1.690;2022-09-12T16:57:44;4.97;;;1.33;;
27612;SDS011;15036;48.094;-1.690;2022-09-12T17:00:11;4.50;;;1.25;;
27612;SDS011;15036;48.094;-1.690;2022-09-12T17:02:38;2.92;;;1.48;;
27612;SDS011;15036;48.094;-1.690;2022-09-12T17:05:03;5.97;;;1.30;;
27612;SDS011;15036;48.094;-1.690;2022-09-12T17:07:29;2.25;;;1.30;;
27612;SDS011;15036;48.094;-1.690;2022-09-12T17:09:54;5.63;;;1.60;;
27612;SDS011;15036;48.094;-1.690;2022-09-12T17:12:19;3.10;;;1.20;;
27612;SDS011;15036;48.094;-1.690;2022-09-12T17:14:45;4.15;;;1.20;;
27612;SDS011;15036;48.094;-1.690;2022-09-12T17:17:10;4.50;;;1.10;;
27612;SDS011;15036;48.094;-1.690;2022-09-12T17:19:35;4.57;;;1.50;;
27612;SDS011;15036;48.094;-1.690;2022-09-12T17:22:01;2.55;;;1.30;;
27612;SDS011;15036;48.094;-1.690;2022-09-12T17:24:26;4.32;;;1.50;;
27612;SDS011;15036;48.094;-1.690;2022-09-12T17:26:52;4.85;;;2.13;;
27612;SDS011;15036;48.094;-1.690;2022-09-12T17:29:17;4.68;;;2.00;;
27612;SDS011;15036;48.094;-1.690;2022-09-12T17:31:43;4.65;;;1.83;;
27612;SDS011;15036;48.094;-1.690;2022-09-12T17:34:09;5.35;;;1.52;;
27612;SDS011;15036;48.094;-1.690;2022-09-12T17:36:38;6.60;;;1.85;;
27612;SDS011;15036;48.094;-1.690;2022-09-12T17:39:04;4.57;;;1.75;;
27612;SDS011;15036;48.094;-1.690;2022-09-12T17:41:29;6.30;;;1.52;;
27612;SDS011;15036;48.094;-1.690;2022-09-12T17:43:58;1.73;;;1.10;;
27612;SDS011;15036;48.094;-1.690;2022-09-12T17:46:28;6.13;;;1.50;;